Wilson Gaeta — 8PTS — position and weather

sailwx.info

Track history (hours):
 
Tides and Currents Weather Stations Pressure Air Temp Water Temp Dewpoint Dewpoint Depression Visibility Wind Speed Wind Dir Waves Ship Positions

Wilson Gaeta

Last reported at 2014-Aug-29 00:09 UTC. Time now 2014-Aug-29 22:28 UTC.
Position N 53°44' W 000°51'.

Length 88 m; draft 4.6 m.

Type: Cargo ship. MMSI: 314237000.

Date/timePositionNaut miles runAvg speedWind from/ knotsBaromVisibWave heightAir tempDewpointWater temp
2014-Aug-29 00:09N 53°44' W 000°51'0 0.0
2014-Aug-28 20:12N 53°44' W 000°51'3 0.3
2014-Aug-28 08:06N 53°42' W 000°47'2 3.3
2014-Aug-28 07:25N 53°42' W 000°43'9 7.8
2014-Aug-28 06:20N 53°42' W 000°29'8 9.9
2014-Aug-28 05:34N 53°44' W 000°16'7 7.4
2014-Aug-28 04:34N 53°38' W 000°08'9 9.2
2014-Aug-28 03:33N 53°34' E 000°06'8 7.6
2014-Aug-28 02:33N 53°36' E 000°18'6 5.5
2014-Aug-28 01:32N 53°41' E 000°21'5 4.7
2014-Aug-28 00:31N 53°46' E 000°20'4 4.2
2014-Aug-27 23:33N 53°50' E 000°18'4 4.1
2014-Aug-27 22:33N 53°54' E 000°17'6 6.0
2014-Aug-27 21:33N 53°60' E 000°15'9 8.5
2014-Aug-27 20:33N 54°08' E 000°11'9 9.4
2014-Aug-27 19:33N 54°17' E 000°08'1010.1
2014-Aug-27 18:33N 54°24' W 000°04'1010.4
2014-Aug-27 17:33N 54°30' W 000°19'1510.7
2014-Aug-27 16:09N 54°37' W 000°42'610.2
2014-Aug-27 15:33N 54°40' W 000°52'9 8.7
2014-Aug-27 14:33N 54°41' W 001°06'7 7.4
2014-Aug-27 13:33N 54°35' W 001°14'0 0.2
2014-Aug-27 12:17N 54°35' W 001°14'0 0.0
2014-Aug-27 10:32N 54°35' W 001°14'0 0.0
2014-Aug-27 09:32N 54°35' W 001°14'0 0.0
2014-Aug-27 08:32N 54°35' W 001°14'0 0.0
2014-Aug-27 07:32N 54°35' W 001°14'0 0.0
2014-Aug-27 06:20N 54°35' W 001°14'0 0.0
2014-Aug-27 05:20N 54°35' W 001°14'0 0.0
2014-Aug-27 04:20N 54°35' W 001°14'0 0.0
2014-Aug-27 02:32N 54°35' W 001°14'0 0.0
2014-Aug-27 01:14N 54°35' W 001°14'0 0.0
2014-Aug-27 00:32N 54°35' W 001°14'0 0.0
2014-Aug-26 23:26N 54°35' W 001°14'0 0.0
2014-Aug-26 22:08N 54°35' W 001°14'0 0.0
2014-Aug-26 14:23N 54°35' W 001°14'0 0.0
2014-Aug-26 13:26N 54°35' W 001°14'0 0.0
2014-Aug-26 12:23N 54°35' W 001°14'0 0.0
2014-Aug-26 11:26N 54°35' W 001°14'0 0.0
2014-Aug-26 10:23N 54°35' W 001°14'0 0.0
2014-Aug-26 09:14N 54°35' W 001°14'0 0.0
2014-Aug-26 08:29N 54°35' W 001°14'0 0.0
2014-Aug-26 07:20N 54°35' W 001°14'0 0.0
2014-Aug-26 06:32N 54°35' W 001°14'0 0.0
2014-Aug-26 03:14N 54°35' W 001°14'0 0.0
2014-Aug-26 02:32N 54°35' W 001°14'0 0.0
2014-Aug-26 01:20N 54°35' W 001°14'0 0.0
2014-Aug-25 23:20N 54°35' W 001°14'0 0.0
2014-Aug-25 22:17N 54°35' W 001°14'0 0.0
2014-Aug-25 20:32N 54°35' W 001°14'0 0.0
2014-Aug-25 19:26N 54°35' W 001°14'0 0.0
2014-Aug-25 18:20N 54°35' W 001°14'0 0.0
2014-Aug-25 14:32N 54°35' W 001°14'0 0.0
2014-Aug-25 13:32N 54°35' W 001°14'0 0.0
2014-Aug-25 12:33N 54°35' W 001°14'0 0.0
2014-Aug-25 11:23N 54°35' W 001°14'0 0.0
2014-Aug-25 10:23N 54°35' W 001°14'0 0.0
2014-Aug-25 09:05N 54°35' W 001°14'0 0.0
2014-Aug-25 08:26N 54°35' W 001°14'0 0.0
2014-Aug-25 07:26N 54°35' W 001°14'0 0.0
2014-Aug-25 06:23N 54°35' W 001°14'0 0.0
2014-Aug-25 05:14N 54°35' W 001°14'0 0.0
2014-Aug-25 04:32N 54°35' W 001°14'0 0.0
2014-Aug-25 03:32N 54°35' W 001°14'0 0.0
2014-Aug-25 02:26N 54°35' W 001°14'0 0.0
2014-Aug-25 01:26N 54°35' W 001°14'0 0.0
2014-Aug-25 00:32N 54°35' W 001°14'0 0.0
2014-Aug-24 23:32N 54°35' W 001°14'0 0.0
2014-Aug-24 22:32N 54°35' W 001°14'0 0.0
2014-Aug-24 21:29N 54°35' W 001°14'0 0.0
2014-Aug-24 19:20N 54°35' W 001°14'0 0.0
2014-Aug-24 18:26N 54°35' W 001°14'0 0.0
2014-Aug-24 17:26N 54°35' W 001°14'0 0.0
2014-Aug-24 16:32N 54°35' W 001°14'0 0.0
2014-Aug-24 14:29N 54°35' W 001°14'0 0.0
2014-Aug-24 13:29N 54°35' W 001°14'0 0.0
2014-Aug-24 12:17N 54°35' W 001°14'0 0.0
2014-Aug-24 11:29N 54°35' W 001°14'0 0.0
2014-Aug-24 10:32N 54°35' W 001°14'0 0.0
2014-Aug-24 09:17N 54°35' W 001°14'0 0.0
2014-Aug-24 08:32N 54°35' W 001°14'0 0.0
2014-Aug-24 07:20N 54°35' W 001°14'0 0.0
2014-Aug-24 06:23N 54°35' W 001°14'0 0.0
2014-Aug-24 05:08N 54°35' W 001°14'0 0.0
2014-Aug-24 04:32N 54°35' W 001°14'0 0.0
2014-Aug-24 03:32N 54°35' W 001°14'0 0.0
2014-Aug-24 02:32N 54°35' W 001°14'0 0.0
2014-Aug-24 01:26N 54°35' W 001°14'0 0.0
2014-Aug-24 00:26N 54°35' W 001°14'0 0.0
2014-Aug-23 23:32N 54°35' W 001°14'0 0.0
2014-Aug-23 22:29N 54°35' W 001°14'0 0.0
2014-Aug-23 21:32N 54°35' W 001°14'0 0.0
2014-Aug-23 20:32N 54°35' W 001°14'0 0.0
2014-Aug-23 19:26N 54°35' W 001°14'233 6.1
2014-Aug-22 05:03N 56°20' E 004°53'141 7.6
2014-Aug-21 10:33N 57°22' E 008°44'7 6.5
2014-Aug-21 09:32N 57°25' E 008°55'7 6.5
2014-Aug-21 08:32N 57°28' E 009°06'6 6.4
2014-Aug-21 07:33N 57°30' E 009°17'6 5.8
2014-Aug-21 06:33N 57°33' E 009°26'21 3.4
2014-Aug-21 00:21N 57°42' E 010°03'2 3.0
2014-Aug-20 23:33N 57°42' E 010°07'4 3.5
2014-Aug-20 22:33N 57°44' E 010°13'4 4.0
2014-Aug-20 21:31N 57°45' E 010°21'3 3.5
2014-Aug-20 20:34N 57°46' E 010°27'3 2.6
2014-Aug-20 19:33N 57°47' E 010°31'2 2.5
2014-Aug-20 18:34N 57°48' E 010°36'4 3.5
2014-Aug-20 17:33N 57°49' E 010°42'4 4.1
2014-Aug-20 16:33N 57°46' E 010°49'6 5.8
2014-Aug-20 15:34N 57°43' E 010°57'7 6.5
2014-Aug-20 14:34N 57°38' E 011°06'7 7.0
2014-Aug-20 13:33N 57°34' E 011°15'7 7.4
2014-Aug-20 12:33N 57°28' E 011°25'7 7.6
2014-Aug-20 11:34N 57°22' E 011°31'8 7.7
2014-Aug-20 10:34N 57°15' E 011°37'52 6.5
2014-Aug-20 02:33N 56°27' E 012°16'6 6.4
2014-Aug-20 01:34N 56°22' E 012°20'7 7.4
2014-Aug-20 00:33N 56°15' E 012°26'8 8.0
2014-Aug-19 23:33N 56°08' E 012°32'8 7.7
2014-Aug-19 22:33N 56°02' E 012°41'8 7.9
2014-Aug-19 21:34N 55°54' E 012°45'8 8.4
2014-Aug-19 20:33N 55°46' E 012°42'8 8.0
2014-Aug-19 19:33N 55°38' E 012°42'7 7.5
2014-Aug-19 18:33N 55°30' E 012°43'9 9.0
2014-Aug-19 17:34N 55°21' E 012°41'7 7.0
2014-Aug-19 16:33N 55°17' E 012°50'6 6.3
2014-Aug-19 15:34N 55°16' E 013°01'7 5.8
2014-Aug-19 14:22N 55°15' E 013°13'35 4.9
2014-Aug-19 07:21N 55°14' E 014°14'5 4.8
2014-Aug-19 06:23N 55°16' E 014°21'5 5.4
2014-Aug-19 05:32N 55°20' E 014°26'7 6.9
2014-Aug-19 04:33N 55°25' E 014°33'7 6.7
2014-Aug-19 03:34N 55°27' E 014°45'7 6.6
2014-Aug-19 02:34N 55°27' E 014°56'6 5.7
2014-Aug-19 01:34N 55°28' E 015°06'6 5.6
2014-Aug-19 00:34N 55°28' E 015°16'  
Track history (hours):
 
Tides and Currents Weather Stations Pressure Air Temp Water Temp Dewpoint Dewpoint Depression Visibility Wind Speed Wind Dir Waves Ship Positions

Wilson Gaeta

Last reported at 2014-Aug-29 00:09 UTC. Time now 2014-Aug-29 22:28 UTC.
Position N 53°44' W 000°51'.

Length 88 m; draft 4.6 m.

Type: Cargo ship. MMSI: 314237000.

Date/timePositionNaut miles runAvg speedWind from/ knotsBaromVisibWave heightAir tempDewpointWater temp
2014-Aug-29 00:09N 53°44' W 000°51'0 0.0
2014-Aug-28 20:12N 53°44' W 000°51'3 0.3
2014-Aug-28 08:06N 53°42' W 000°47'2 3.3
2014-Aug-28 07:25N 53°42' W 000°43'9 7.8
2014-Aug-28 06:20N 53°42' W 000°29'8 9.9
2014-Aug-28 05:34N 53°44' W 000°16'7 7.4
2014-Aug-28 04:34N 53°38' W 000°08'9 9.2
2014-Aug-28 03:33N 53°34' E 000°06'8 7.6
2014-Aug-28 02:33N 53°36' E 000°18'6 5.5
2014-Aug-28 01:32N 53°41' E 000°21'5 4.7
2014-Aug-28 00:31N 53°46' E 000°20'4 4.2
2014-Aug-27 23:33N 53°50' E 000°18'4 4.1
2014-Aug-27 22:33N 53°54' E 000°17'6 6.0
2014-Aug-27 21:33N 53°60' E 000°15'9 8.5
2014-Aug-27 20:33N 54°08' E 000°11'9 9.4
2014-Aug-27 19:33N 54°17' E 000°08'1010.1
2014-Aug-27 18:33N 54°24' W 000°04'1010.4
2014-Aug-27 17:33N 54°30' W 000°19'1510.7
2014-Aug-27 16:09N 54°37' W 000°42'610.2
2014-Aug-27 15:33N 54°40' W 000°52'9 8.7
2014-Aug-27 14:33N 54°41' W 001°06'7 7.4
2014-Aug-27 13:33N 54°35' W 001°14'0 0.2
2014-Aug-27 12:17N 54°35' W 001°14'0 0.0
2014-Aug-27 10:32N 54°35' W 001°14'0 0.0
2014-Aug-27 09:32N 54°35' W 001°14'0 0.0
2014-Aug-27 08:32N 54°35' W 001°14'0 0.0
2014-Aug-27 07:32N 54°35' W 001°14'0 0.0
2014-Aug-27 06:20N 54°35' W 001°14'0 0.0
2014-Aug-27 05:20N 54°35' W 001°14'0 0.0
2014-Aug-27 04:20N 54°35' W 001°14'0 0.0
2014-Aug-27 02:32N 54°35' W 001°14'0 0.0
2014-Aug-27 01:14N 54°35' W 001°14'0 0.0
2014-Aug-27 00:32N 54°35' W 001°14'0 0.0
2014-Aug-26 23:26N 54°35' W 001°14'0 0.0
2014-Aug-26 22:08N 54°35' W 001°14'0 0.0
2014-Aug-26 14:23N 54°35' W 001°14'0 0.0
2014-Aug-26 13:26N 54°35' W 001°14'0 0.0
2014-Aug-26 12:23N 54°35' W 001°14'0 0.0
2014-Aug-26 11:26N 54°35' W 001°14'0 0.0
2014-Aug-26 10:23N 54°35' W 001°14'0 0.0
2014-Aug-26 09:14N 54°35' W 001°14'0 0.0
2014-Aug-26 08:29N 54°35' W 001°14'0 0.0
2014-Aug-26 07:20N 54°35' W 001°14'0 0.0
2014-Aug-26 06:32N 54°35' W 001°14'0 0.0
2014-Aug-26 03:14N 54°35' W 001°14'0 0.0
2014-Aug-26 02:32N 54°35' W 001°14'0 0.0
2014-Aug-26 01:20N 54°35' W 001°14'0 0.0
2014-Aug-25 23:20N 54°35' W 001°14'0 0.0
2014-Aug-25 22:17N 54°35' W 001°14'0 0.0
2014-Aug-25 20:32N 54°35' W 001°14'0 0.0
2014-Aug-25 19:26N 54°35' W 001°14'0 0.0
2014-Aug-25 18:20N 54°35' W 001°14'0 0.0
2014-Aug-25 14:32N 54°35' W 001°14'0 0.0
2014-Aug-25 13:32N 54°35' W 001°14'0 0.0
2014-Aug-25 12:33N 54°35' W 001°14'0 0.0
2014-Aug-25 11:23N 54°35' W 001°14'0 0.0
2014-Aug-25 10:23N 54°35' W 001°14'0 0.0
2014-Aug-25 09:05N 54°35' W 001°14'0 0.0
2014-Aug-25 08:26N 54°35' W 001°14'0 0.0
2014-Aug-25 07:26N 54°35' W 001°14'0 0.0
2014-Aug-25 06:23N 54°35' W 001°14'0 0.0
2014-Aug-25 05:14N 54°35' W 001°14'0 0.0
2014-Aug-25 04:32N 54°35' W 001°14'0 0.0
2014-Aug-25 03:32N 54°35' W 001°14'0 0.0
2014-Aug-25 02:26N 54°35' W 001°14'0 0.0
2014-Aug-25 01:26N 54°35' W 001°14'0 0.0
2014-Aug-25 00:32N 54°35' W 001°14'0 0.0
2014-Aug-24 23:32N 54°35' W 001°14'0 0.0
2014-Aug-24 22:32N 54°35' W 001°14'0 0.0
2014-Aug-24 21:29N 54°35' W 001°14'0 0.0
2014-Aug-24 19:20N 54°35' W 001°14'0 0.0
2014-Aug-24 18:26N 54°35' W 001°14'0 0.0
2014-Aug-24 17:26N 54°35' W 001°14'0 0.0
2014-Aug-24 16:32N 54°35' W 001°14'0 0.0
2014-Aug-24 14:29N 54°35' W 001°14'0 0.0
2014-Aug-24 13:29N 54°35' W 001°14'0 0.0
2014-Aug-24 12:17N 54°35' W 001°14'0 0.0
2014-Aug-24 11:29N 54°35' W 001°14'0 0.0
2014-Aug-24 10:32N 54°35' W 001°14'0 0.0
2014-Aug-24 09:17N 54°35' W 001°14'0 0.0
2014-Aug-24 08:32N 54°35' W 001°14'0 0.0
2014-Aug-24 07:20N 54°35' W 001°14'0 0.0
2014-Aug-24 06:23N 54°35' W 001°14'0 0.0
2014-Aug-24 05:08N 54°35' W 001°14'0 0.0
2014-Aug-24 04:32N 54°35' W 001°14'0 0.0
2014-Aug-24 03:32N 54°35' W 001°14'0 0.0
2014-Aug-24 02:32N 54°35' W 001°14'0 0.0
2014-Aug-24 01:26N 54°35' W 001°14'0 0.0
2014-Aug-24 00:26N 54°35' W 001°14'0 0.0
2014-Aug-23 23:32N 54°35' W 001°14'0 0.0
2014-Aug-23 22:29N 54°35' W 001°14'0 0.0
2014-Aug-23 21:32N 54°35' W 001°14'0 0.0
2014-Aug-23 20:32N 54°35' W 001°14'0 0.0
2014-Aug-23 19:26N 54°35' W 001°14'233 6.1
2014-Aug-22 05:03N 56°20' E 004°53'141 7.6
2014-Aug-21 10:33N 57°22' E 008°44'7 6.5
2014-Aug-21 09:32N 57°25' E 008°55'7 6.5
2014-Aug-21 08:32N 57°28' E 009°06'6 6.4
2014-Aug-21 07:33N 57°30' E 009°17'6 5.8
2014-Aug-21 06:33N 57°33' E 009°26'21 3.4
2014-Aug-21 00:21N 57°42' E 010°03'2 3.0
2014-Aug-20 23:33N 57°42' E 010°07'4 3.5
2014-Aug-20 22:33N 57°44' E 010°13'4 4.0
2014-Aug-20 21:31N 57°45' E 010°21'3 3.5
2014-Aug-20 20:34N 57°46' E 010°27'3 2.6
2014-Aug-20 19:33N 57°47' E 010°31'2 2.5
2014-Aug-20 18:34N 57°48' E 010°36'4 3.5
2014-Aug-20 17:33N 57°49' E 010°42'4 4.1
2014-Aug-20 16:33N 57°46' E 010°49'6 5.8
2014-Aug-20 15:34N 57°43' E 010°57'7 6.5
2014-Aug-20 14:34N 57°38' E 011°06'7 7.0
2014-Aug-20 13:33N 57°34' E 011°15'7 7.4
2014-Aug-20 12:33N 57°28' E 011°25'7 7.6
2014-Aug-20 11:34N 57°22' E 011°31'8 7.7
2014-Aug-20 10:34N 57°15' E 011°37'52 6.5
2014-Aug-20 02:33N 56°27' E 012°16'6 6.4
2014-Aug-20 01:34N 56°22' E 012°20'7 7.4
2014-Aug-20 00:33N 56°15' E 012°26'8 8.0
2014-Aug-19 23:33N 56°08' E 012°32'8 7.7
2014-Aug-19 22:33N 56°02' E 012°41'8 7.9
2014-Aug-19 21:34N 55°54' E 012°45'8 8.4
2014-Aug-19 20:33N 55°46' E 012°42'8 8.0
2014-Aug-19 19:33N 55°38' E 012°42'7 7.5
2014-Aug-19 18:33N 55°30' E 012°43'9 9.0
2014-Aug-19 17:34N 55°21' E 012°41'7 7.0
2014-Aug-19 16:33N 55°17' E 012°50'6 6.3
2014-Aug-19 15:34N 55°16' E 013°01'7 5.8
2014-Aug-19 14:22N 55°15' E 013°13'35 4.9
2014-Aug-19 07:21N 55°14' E 014°14'5 4.8
2014-Aug-19 06:23N 55°16' E 014°21'5 5.4
2014-Aug-19 05:32N 55°20' E 014°26'7 6.9
2014-Aug-19 04:33N 55°25' E 014°33'7 6.7
2014-Aug-19 03:34N 55°27' E 014°45'7 6.6
2014-Aug-19 02:34N 55°27' E 014°56'6 5.7
2014-Aug-19 01:34N 55°28' E 015°06'6 5.6
2014-Aug-19 00:34N 55°28' E 015°16'  

Dump ship's entire track history